sensor_id;sensor_type;location;lat;lon;timestamp;temperature;humidity
68378;DHT22;55322;48.146;11.516;2023-01-01T00:02:00;11.45;63.43
68378;DHT22;55322;48.146;11.516;2023-01-01T00:04:26;11.35;64.41
68378;DHT22;55322;48.146;11.516;2023-01-01T00:06:51;11.24;64.73
68378;DHT22;55322;48.146;11.516;2023-01-01T00:09:17;11.23;64.59
68378;DHT22;55322;48.146;11.516;2023-01-01T00:12:03;11.12;65.54
68378;DHT22;55322;48.146;11.516;2023-01-01T00:14:28;11.06;66.04
68378;DHT22;55322;48.146;11.516;2023-01-01T00:16:54;11.07;65.86
68378;DHT22;55322;48.146;11.516;2023-01-01T00:19:20;11.07;65.83
68378;DHT22;55322;48.146;11.516;2023-01-01T00:21:45;11.07;65.48
68378;DHT22;55322;48.146;11.516;2023-01-01T00:24:10;11.02;65.56
68378;DHT22;55322;48.146;11.516;2023-01-01T00:26:36;11.02;65.67
68378;DHT22;55322;48.146;11.516;2023-01-01T00:29:02;10.97;65.56
68378;DHT22;55322;48.146;11.516;2023-01-01T00:31:28;11.09;64.12
68378;DHT22;55322;48.146;11.516;2023-01-01T00:33:54;11.00;65.51
68378;DHT22;55322;48.146;11.516;2023-01-01T00:36:21;10.97;64.98
68378;DHT22;55322;48.146;11.516;2023-01-01T00:38:47;10.95;64.72
68378;DHT22;55322;48.146;11.516;2023-01-01T00:41:14;11.00;63.51
68378;DHT22;55322;48.146;11.516;2023-01-01T00:43:40;10.90;64.06
68378;DHT22;55322;48.146;11.516;2023-01-01T00:46:05;10.96;63.33
68378;DHT22;55322;48.146;11.516;2023-01-01T00:48:32;11.12;62.24
68378;DHT22;55322;48.146;11.516;2023-01-01T00:50:58;11.04;63.17
68378;DHT22;55322;48.146;11.516;2023-01-01T00:53:24;10.96;63.15
68378;DHT22;55322;48.146;11.516;2023-01-01T00:55:50;10.86;63.38
68378;DHT22;55322;48.146;11.516;2023-01-01T00:58:16;10.75;64.54
68378;DHT22;55322;48.146;11.516;2023-01-01T01:00:42;10.69;64.61
68378;DHT22;55322;48.146;11.516;2023-01-01T01:03:09;10.59;64.14
68378;DHT22;55322;48.146;11.516;2023-01-01T01:05:37;10.52;65.27
68378;DHT22;55322;48.146;11.516;2023-01-01T01:08:02;10.41;64.64
68378;DHT22;55322;48.146;11.516;2023-01-01T01:10:27;10.50;63.74
68378;DHT22;55322;48.146;11.516;2023-01-01T01:12:53;10.53;64.14
68378;DHT22;55322;48.146;11.516;2023-01-01T01:15:18;10.52;64.04
68378;DHT22;55322;48.146;11.516;2023-01-01T01:17:44;10.45;64.84
68378;DHT22;55322;48.146;11.516;2023-01-01T01:20:09;10.35;64.27
68378;DHT22;55322;48.146;11.516;2023-01-01T01:22:37;10.34;64.18
68378;DHT22;55322;48.146;11.516;2023-01-01T01:25:02;10.28;65.46
68378;DHT22;55322;48.146;11.516;2023-01-01T01:27:29;10.15;66.05
68378;DHT22;55322;48.146;11.516;2023-01-01T01:29:54;10.17;65.10
68378;DHT22;55322;48.146;11.516;2023-01-01T01:32:19;10.24;63.96
68378;DHT22;55322;48.146;11.516;2023-01-01T01:34:45;10.21;64.17
68378;DHT22;55322;48.146;11.516;2023-01-01T01:37:11;10.14;64.88
68378;DHT22;55322;48.146;11.516;2023-01-01T01:39:37;10.01;66.42
68378;DHT22;55322;48.146;11.516;2023-01-01T01:42:02;10.05;64.44
68378;DHT22;55322;48.146;11.516;2023-01-01T01:44:54;10.22;63.00
68378;DHT22;55322;48.146;11.516;2023-01-01T01:52:27;10.42;62.45
68378;DHT22;55322;48.146;11.516;2023-01-01T01:54:52;10.56;61.50
68378;DHT22;55322;48.146;11.516;2023-01-01T01:57:18;10.72;60.65
68378;DHT22;55322;48.146;11.516;2023-01-01T01:59:49;10.69;61.87
68378;DHT22;55322;48.146;11.516;2023-01-01T02:02:36;10.77;60.58
68378;DHT22;55322;48.146;11.516;2023-01-01T02:05:04;10.77;60.56
68378;DHT22;55322;48.146;11.516;2023-01-01T02:07:31;10.75;61.24
68378;DHT22;55322;48.146;11.516;2023-01-01T02:09:57;10.41;64.63
68378;DHT22;55322;48.146;11.516;2023-01-01T02:12:25;10.17;65.34
68378;DHT22;55322;48.146;11.516;2023-01-01T02:14:50;9.83;67.93
68378;DHT22;55322;48.146;11.516;2023-01-01T02:17:29;9.57;68.41
68378;DHT22;55322;48.146;11.516;2023-01-01T02:31:18;9.58;67.07
68378;DHT22;55322;48.146;11.516;2023-01-01T02:33:45;9.74;64.93
68378;DHT22;55322;48.146;11.516;2023-01-01T02:36:12;9.85;64.13
68378;DHT22;55322;48.146;11.516;2023-01-01T02:38:40;9.77;65.07
68378;DHT22;55322;48.146;11.516;2023-01-01T02:41:11;9.98;63.62
68378;DHT22;55322;48.146;11.516;2023-01-01T02:43:37;9.99;63.38
68378;DHT22;55322;48.146;11.516;2023-01-01T02:46:06;10.17;63.05
68378;DHT22;55322;48.146;11.516;2023-01-01T02:48:41;10.12;63.46
68378;DHT22;55322;48.146;11.516;2023-01-01T02:56:36;10.02;64.70
68378;DHT22;55322;48.146;11.516;2023-01-01T02:59:21;9.95;65.81
68378;DHT22;55322;48.146;11.516;2023-01-01T03:02:30;9.94;64.80
68378;DHT22;55322;48.146;11.516;2023-01-01T03:10:08;9.90;64.81
68378;DHT22;55322;48.146;11.516;2023-01-01T03:12:54;9.81;65.17
68378;DHT22;55322;48.146;11.516;2023-01-01T03:20:30;9.63;66.68
68378;DHT22;55322;48.146;11.516;2023-01-01T03:23:01;9.51;67.10
68378;DHT22;55322;48.146;11.516;2023-01-01T03:25:31;9.46;67.55
68378;DHT22;55322;48.146;11.516;2023-01-01T03:28:02;9.46;66.46
68378;DHT22;55322;48.146;11.516;2023-01-01T03:30:30;9.22;69.36
68378;DHT22;55322;48.146;11.516;2023-01-01T03:33:02;9.00;70.63
68378;DHT22;55322;48.146;11.516;2023-01-01T03:37:57;8.71;72.75
68378;DHT22;55322;48.146;11.516;2023-01-01T03:40:25;8.61;73.03
68378;DHT22;55322;48.146;11.516;2023-01-01T03:42:55;8.54;71.66
68378;DHT22;55322;48.146;11.516;2023-01-01T03:45:27;8.47;72.10
68378;DHT22;55322;48.146;11.516;2023-01-01T03:47:54;8.38;72.99
68378;DHT22;55322;48.146;11.516;2023-01-01T03:50:21;8.33;73.35
68378;DHT22;55322;48.146;11.516;2023-01-01T03:53:26;8.27;72.83
68378;DHT22;55322;48.146;11.516;2023-01-01T03:56:26;8.14;74.06
68378;DHT22;55322;48.146;11.516;2023-01-01T03:59:01;8.21;72.38
68378;DHT22;55322;48.146;11.516;2023-01-01T04:01:36;8.24;72.85
68378;DHT22;55322;48.146;11.516;2023-01-01T04:04:03;8.18;74.28
68378;DHT22;55322;48.146;11.516;2023-01-01T04:06:31;8.03;74.06
68378;DHT22;55322;48.146;11.516;2023-01-01T04:08:58;8.04;73.88
68378;DHT22;55322;48.146;11.516;2023-01-01T04:11:27;8.11;73.66
68378;DHT22;55322;48.146;11.516;2023-01-01T04:14:12;8.13;73.30
68378;DHT22;55322;48.146;11.516;2023-01-01T04:16:37;8.57;71.02
68378;DHT22;55322;48.146;11.516;2023-01-01T04:19:02;8.90;69.66
68378;DHT22;55322;48.146;11.516;2023-01-01T04:21:31;9.16;68.75
68378;DHT22;55322;48.146;11.516;2023-01-01T04:23:56;9.33;68.23
68378;DHT22;55322;48.146;11.516;2023-01-01T04:26:22;9.32;68.22
68378;DHT22;55322;48.146;11.516;2023-01-01T04:28:47;9.26;68.54
68378;DHT22;55322;48.146;11.516;2023-01-01T04:31:12;9.34;68.15
68378;DHT22;55322;48.146;11.516;2023-01-01T04:33:37;9.29;68.66
68378;DHT22;55322;48.146;11.516;2023-01-01T04:36:07;9.19;69.40
68378;DHT22;55322;48.146;11.516;2023-01-01T04:38:34;9.18;69.09
68378;DHT22;55322;48.146;11.516;2023-01-01T04:41:00;9.13;69.13
68378;DHT22;55322;48.146;11.516;2023-01-01T04:43:26;9.16;69.03
68378;DHT22;55322;48.146;11.516;2023-01-01T04:46:01;9.20;68.82
68378;DHT22;55322;48.146;11.516;2023-01-01T04:48:28;9.24;68.63
68378;DHT22;55322;48.146;11.516;2023-01-01T04:50:59;9.18;69.06
68378;DHT22;55322;48.146;11.516;2023-01-01T04:53:28;9.19;69.12
68378;DHT22;55322;48.146;11.516;2023-01-01T04:55:54;9.15;69.09
68378;DHT22;55322;48.146;11.516;2023-01-01T04:58:20;9.15;69.39
68378;DHT22;55322;48.146;11.516;2023-01-01T05:00:49;9.18;69.38
68378;DHT22;55322;48.146;11.516;2023-01-01T05:03:15;9.13;69.40
68378;DHT22;55322;48.146;11.516;2023-01-01T05:05:40;9.06;69.89
68378;DHT22;55322;48.146;11.516;2023-01-01T05:08:06;9.10;69.38
68378;DHT22;55322;48.146;11.516;2023-01-01T05:10:31;8.96;71.20
68378;DHT22;55322;48.146;11.516;2023-01-01T05:12:56;8.92;70.56
68378;DHT22;55322;48.146;11.516;2023-01-01T05:15:21;8.89;70.47
68378;DHT22;55322;48.146;11.516;2023-01-01T05:17:47;9.02;69.77
68378;DHT22;55322;48.146;11.516;2023-01-01T05:20:12;9.06;69.65
68378;DHT22;55322;48.146;11.516;2023-01-01T05:22:37;9.03;69.85
68378;DHT22;55322;48.146;11.516;2023-01-01T05:25:03;9.03;69.64
68378;DHT22;55322;48.146;11.516;2023-01-01T05:27:28;9.03;69.62
68378;DHT22;55322;48.146;11.516;2023-01-01T05:29:54;9.18;68.75
68378;DHT22;55322;48.146;11.516;2023-01-01T05:32:19;9.05;70.09
68378;DHT22;55322;48.146;11.516;2023-01-01T05:34:44;9.00;69.77
68378;DHT22;55322;48.146;11.516;2023-01-01T05:37:10;9.03;69.06
68378;DHT22;55322;48.146;11.516;2023-01-01T05:39:35;9.03;69.18
68378;DHT22;55322;48.146;11.516;2023-01-01T05:42:01;8.99;69.46
68378;DHT22;55322;48.146;11.516;2023-01-01T05:44:27;8.98;69.52
68378;DHT22;55322;48.146;11.516;2023-01-01T05:46:52;8.92;69.65
68378;DHT22;55322;48.146;11.516;2023-01-01T05:49:17;8.86;69.81
68378;DHT22;55322;48.146;11.516;2023-01-01T05:51:42;8.90;68.82
68378;DHT22;55322;48.146;11.516;2023-01-01T05:54:09;8.88;69.38
68378;DHT22;55322;48.146;11.516;2023-01-01T05:56:34;8.86;70.05
68378;DHT22;55322;48.146;11.516;2023-01-01T05:59:00;8.72;70.68
68378;DHT22;55322;48.146;11.516;2023-01-01T06:01:27;8.65;70.38
68378;DHT22;55322;48.146;11.516;2023-01-01T06:03:54;8.83;69.07
68378;DHT22;55322;48.146;11.516;2023-01-01T06:06:22;8.95;68.55
68378;DHT22;55322;48.146;11.516;2023-01-01T06:08:52;9.00;68.64
68378;DHT22;55322;48.146;11.516;2023-01-01T06:11:18;9.10;67.73
68378;DHT22;55322;48.146;11.516;2023-01-01T06:13:44;9.15;67.49
68378;DHT22;55322;48.146;11.516;2023-01-01T06:16:09;9.24;66.77
68378;DHT22;55322;48.146;11.516;2023-01-01T06:18:35;9.22;67.45
68378;DHT22;55322;48.146;11.516;2023-01-01T06:21:05;9.22;67.12
68378;DHT22;55322;48.146;11.516;2023-01-01T06:23:31;9.34;66.20
68378;DHT22;55322;48.146;11.516;2023-01-01T06:26:03;9.36;66.08
68378;DHT22;55322;48.146;11.516;2023-01-01T06:28:29;9.39;66.60
68378;DHT22;55322;48.146;11.516;2023-01-01T06:30:58;9.47;65.60
68378;DHT22;55322;48.146;11.516;2023-01-01T06:33:24;9.44;66.07
68378;DHT22;55322;48.146;11.516;2023-01-01T06:35:49;9.54;65.78
68378;DHT22;55322;48.146;11.516;2023-01-01T06:38:14;9.61;64.96
68378;DHT22;55322;48.146;11.516;2023-01-01T06:40:39;9.53;65.72
68378;DHT22;55322;48.146;11.516;2023-01-01T06:43:05;9.43;65.95
68378;DHT22;55322;48.146;11.516;2023-01-01T06:45:30;9.43;65.83
68378;DHT22;55322;48.146;11.516;2023-01-01T06:47:56;9.36;66.08
68378;DHT22;55322;48.146;11.516;2023-01-01T06:50:21;9.26;66.58
68378;DHT22;55322;48.146;11.516;2023-01-01T06:52:46;9.16;66.80
68378;DHT22;55322;48.146;11.516;2023-01-01T06:55:12;9.05;67.55
68378;DHT22;55322;48.146;11.516;2023-01-01T06:57:37;8.95;68.37
68378;DHT22;55322;48.146;11.516;2023-01-01T07:00:03;8.95;67.94
68378;DHT22;55322;48.146;11.516;2023-01-01T07:02:29;8.83;68.77
68378;DHT22;55322;48.146;11.516;2023-01-01T07:04:54;8.85;68.60
68378;DHT22;55322;48.146;11.516;2023-01-01T07:07:19;8.85;69.01
68378;DHT22;55322;48.146;11.516;2023-01-01T07:09:45;8.76;69.14
68378;DHT22;55322;48.146;11.516;2023-01-01T07:12:10;8.71;68.66
68378;DHT22;55322;48.146;11.516;2023-01-01T07:14:35;8.69;68.78
68378;DHT22;55322;48.146;11.516;2023-01-01T07:17:01;8.45;70.25
68378;DHT22;55322;48.146;11.516;2023-01-01T07:19:26;8.37;70.72
68378;DHT22;55322;48.146;11.516;2023-01-01T07:21:52;8.37;70.35
68378;DHT22;55322;48.146;11.516;2023-01-01T07:24:18;8.30;70.86
68378;DHT22;55322;48.146;11.516;2023-01-01T07:26:44;8.25;70.73
68378;DHT22;55322;48.146;11.516;2023-01-01T07:29:10;8.24;70.93
68378;DHT22;55322;48.146;11.516;2023-01-01T07:31:38;8.18;71.58
68378;DHT22;55322;48.146;11.516;2023-01-01T07:34:11;8.03;72.92
68378;DHT22;55322;48.146;11.516;2023-01-01T07:36:37;8.04;72.50
68378;DHT22;55322;48.146;11.516;2023-01-01T07:39:02;8.10;71.95
68378;DHT22;55322;48.146;11.516;2023-01-01T07:41:28;8.05;73.51
68378;DHT22;55322;48.146;11.516;2023-01-01T07:43:53;8.08;72.84
68378;DHT22;55322;48.146;11.516;2023-01-01T07:46:18;8.04;72.99
68378;DHT22;55322;48.146;11.516;2023-01-01T07:48:44;8.14;72.37
68378;DHT22;55322;48.146;11.516;2023-01-01T07:51:09;8.27;71.85
68378;DHT22;55322;48.146;11.516;2023-01-01T07:53:34;8.31;71.67
68378;DHT22;55322;48.146;11.516;2023-01-01T07:56:00;8.41;70.56
68378;DHT22;55322;48.146;11.516;2023-01-01T07:58:25;8.65;69.57
68378;DHT22;55322;48.146;11.516;2023-01-01T08:00:51;8.68;70.60
68378;DHT22;55322;48.146;11.516;2023-01-01T08:03:16;8.93;69.31
68378;DHT22;55322;48.146;11.516;2023-01-01T08:05:41;8.98;69.26
68378;DHT22;55322;48.146;11.516;2023-01-01T08:08:08;9.70;67.38
68378;DHT22;55322;48.146;11.516;2023-01-01T08:10:34;10.41;64.07
68378;DHT22;55322;48.146;11.516;2023-01-01T08:13:04;10.46;64.25
68378;DHT22;55322;48.146;11.516;2023-01-01T08:15:30;10.45;62.86
68378;DHT22;55322;48.146;11.516;2023-01-01T08:17:59;10.48;62.82
68378;DHT22;55322;48.146;11.516;2023-01-01T08:20:26;10.56;62.87
68378;DHT22;55322;48.146;11.516;2023-01-01T08:22:52;10.66;62.10
68378;DHT22;55322;48.146;11.516;2023-01-01T08:25:18;10.77;62.27
68378;DHT22;55322;48.146;11.516;2023-01-01T08:27:43;10.92;61.22
68378;DHT22;55322;48.146;11.516;2023-01-01T08:30:10;11.06;60.67
68378;DHT22;55322;48.146;11.516;2023-01-01T08:32:36;11.60;59.35
68378;DHT22;55322;48.146;11.516;2023-01-01T08:35:02;12.94;55.98
68378;DHT22;55322;48.146;11.516;2023-01-01T08:37:27;14.10;52.83
68378;DHT22;55322;48.146;11.516;2023-01-01T08:39:53;14.97;52.22
68378;DHT22;55322;48.146;11.516;2023-01-01T08:42:18;15.46;52.90
68378;DHT22;55322;48.146;11.516;2023-01-01T08:44:43;16.05;49.36
68378;DHT22;55322;48.146;11.516;2023-01-01T08:47:27;16.49;50.75
68378;DHT22;55322;48.146;11.516;2023-01-01T08:49:52;17.16;45.89
68378;DHT22;55322;48.146;11.516;2023-01-01T08:52:18;16.91;49.51
68378;DHT22;55322;48.146;11.516;2023-01-01T08:54:44;17.52;44.00
68378;DHT22;55322;48.146;11.516;2023-01-01T08:57:10;18.00;42.20
68378;DHT22;55322;48.146;11.516;2023-01-01T08:59:35;18.40;42.08
68378;DHT22;55322;48.146;11.516;2023-01-01T09:02:01;18.69;40.94
68378;DHT22;55322;48.146;11.516;2023-01-01T09:04:26;18.89;40.95
68378;DHT22;55322;48.146;11.516;2023-01-01T09:06:51;18.69;41.65
68378;DHT22;55322;48.146;11.516;2023-01-01T09:09:17;18.92;40.49
68378;DHT22;55322;48.146;11.516;2023-01-01T09:11:56;18.31;43.48
68378;DHT22;55322;48.146;11.516;2023-01-01T09:14:23;18.20;43.41
68378;DHT22;55322;48.146;11.516;2023-01-01T09:16:49;18.20;42.93
68378;DHT22;55322;48.146;11.516;2023-01-01T09:19:14;18.55;41.74
68378;DHT22;55322;48.146;11.516;2023-01-01T09:21:40;18.47;41.77
68378;DHT22;55322;48.146;11.516;2023-01-01T09:24:05;18.14;43.98
68378;DHT22;55322;48.146;11.516;2023-01-01T09:26:31;18.27;44.71
68378;DHT22;55322;48.146;11.516;2023-01-01T09:28:56;18.34;43.48
68378;DHT22;55322;48.146;11.516;2023-01-01T09:31:22;17.96;46.73
68378;DHT22;55322;48.146;11.516;2023-01-01T09:33:47;17.82;47.11
68378;DHT22;55322;48.146;11.516;2023-01-01T09:38:50;18.30;44.53
68378;DHT22;55322;48.146;11.516;2023-01-01T09:46:24;19.67;42.48
68378;DHT22;55322;48.146;11.516;2023-01-01T09:49:02;19.52;43.60
68378;DHT22;55322;48.146;11.516;2023-01-01T09:51:32;20.07;41.84
68378;DHT22;55322;48.146;11.516;2023-01-01T09:54:08;20.21;42.83
68378;DHT22;55322;48.146;11.516;2023-01-01T09:56:35;20.55;41.26
68378;DHT22;55322;48.146;11.516;2023-01-01T09:59:01;20.78;41.89
68378;DHT22;55322;48.146;11.516;2023-01-01T10:07:28;20.84;42.30
68378;DHT22;55322;48.146;11.516;2023-01-01T10:10:23;20.79;42.37
68378;DHT22;55322;48.146;11.516;2023-01-01T10:16:04;21.02;43.01
68378;DHT22;55322;48.146;11.516;2023-01-01T10:18:34;21.09;42.48
68378;DHT22;55322;48.146;11.516;2023-01-01T10:21:14;20.91;42.80
68378;DHT22;55322;48.146;11.516;2023-01-01T10:23:46;20.95;42.13
68378;DHT22;55322;48.146;11.516;2023-01-01T10:26:16;21.45;41.92
68378;DHT22;55322;48.146;11.516;2023-01-01T10:28:59;21.53;39.21
68378;DHT22;55322;48.146;11.516;2023-01-01T10:31:34;21.05;40.75
68378;DHT22;55322;48.146;11.516;2023-01-01T10:34:07;20.84;41.28
68378;DHT22;55322;48.146;11.516;2023-01-01T10:36:36;21.46;37.79
68378;DHT22;55322;48.146;11.516;2023-01-01T10:39:01;20.52;38.06
68378;DHT22;55322;48.146;11.516;2023-01-01T10:41:26;20.89;39.33
68378;DHT22;55322;48.146;11.516;2023-01-01T10:43:52;21.23;38.58
68378;DHT22;55322;48.146;11.516;2023-01-01T10:46:20;20.85;41.09
68378;DHT22;55322;48.146;11.516;2023-01-01T10:51:29;20.78;37.63
68378;DHT22;55322;48.146;11.516;2023-01-01T10:53:54;20.56;39.75
68378;DHT22;55322;48.146;11.516;2023-01-01T10:56:23;20.13;39.26
68378;DHT22;55322;48.146;11.516;2023-01-01T10:58:51;20.48;38.85
68378;DHT22;55322;48.146;11.516;2023-01-01T11:01:29;20.40;38.94
68378;DHT22;55322;48.146;11.516;2023-01-01T11:06:40;20.41;40.01
68378;DHT22;55322;48.146;11.516;2023-01-01T11:09:21;20.18;40.24
68378;DHT22;55322;48.146;11.516;2023-01-01T11:11:54;20.24;38.81
68378;DHT22;55322;48.146;11.516;2023-01-01T11:14:31;20.25;42.60
68378;DHT22;55322;48.146;11.516;2023-01-01T11:16:59;20.33;42.49
68378;DHT22;55322;48.146;11.516;2023-01-01T11:19:29;20.23;42.46
68378;DHT22;55322;48.146;11.516;2023-01-01T11:21:55;20.14;43.24
68378;DHT22;55322;48.146;11.516;2023-01-01T11:26:53;20.21;40.65
68378;DHT22;55322;48.146;11.516;2023-01-01T11:29:27;20.28;42.78
68378;DHT22;55322;48.146;11.516;2023-01-01T11:31:54;20.31;42.83
68378;DHT22;55322;48.146;11.516;2023-01-01T11:34:35;20.07;42.12
68378;DHT22;55322;48.146;11.516;2023-01-01T11:39:47;20.18;42.38
68378;DHT22;55322;48.146;11.516;2023-01-01T11:42:22;19.83;42.62
68378;DHT22;55322;48.146;11.516;2023-01-01T11:44:53;19.89;43.88
68378;DHT22;55322;48.146;11.516;2023-01-01T11:47:39;20.00;43.98
68378;DHT22;55322;48.146;11.516;2023-01-01T11:50:27;19.60;44.33
68378;DHT22;55322;48.146;11.516;2023-01-01T11:52:56;19.76;44.29
68378;DHT22;55322;48.146;11.516;2023-01-01T11:55:39;20.07;41.88
68378;DHT22;55322;48.146;11.516;2023-01-01T11:58:16;20.09;42.73
68378;DHT22;55322;48.146;11.516;2023-01-01T12:00:42;20.21;42.05
68378;DHT22;55322;48.146;11.516;2023-01-01T12:03:39;20.48;39.61
68378;DHT22;55322;48.146;11.516;2023-01-01T12:06:11;20.40;40.98
68378;DHT22;55322;48.146;11.516;2023-01-01T12:08:44;20.17;41.98
68378;DHT22;55322;48.146;11.516;2023-01-01T12:11:26;20.25;40.84
68378;DHT22;55322;48.146;11.516;2023-01-01T12:14:04;20.20;41.23
68378;DHT22;55322;48.146;11.516;2023-01-01T12:16:57;19.84;43.28
68378;DHT22;55322;48.146;11.516;2023-01-01T12:19:41;19.59;43.84
68378;DHT22;55322;48.146;11.516;2023-01-01T12:22:14;19.83;44.49
68378;DHT22;55322;48.146;11.516;2023-01-01T12:24:40;19.63;43.36
68378;DHT22;55322;48.146;11.516;2023-01-01T12:29:57;19.39;44.02
68378;DHT22;55322;48.146;11.516;2023-01-01T12:35:01;19.22;44.20
68378;DHT22;55322;48.146;11.516;2023-01-01T12:37:50;19.15;43.83
68378;DHT22;55322;48.146;11.516;2023-01-01T12:40:44;18.88;44.45
68378;DHT22;55322;48.146;11.516;2023-01-01T12:43:29;18.69;44.93
68378;DHT22;55322;48.146;11.516;2023-01-01T12:48:53;18.54;46.12
68378;DHT22;55322;48.146;11.516;2023-01-01T12:51:30;18.60;44.78
68378;DHT22;55322;48.146;11.516;2023-01-01T12:59:35;18.38;47.33
68378;DHT22;55322;48.146;11.516;2023-01-01T13:02:13;18.31;45.46
68378;DHT22;55322;48.146;11.516;2023-01-01T13:04:41;18.31;46.74
68378;DHT22;55322;48.146;11.516;2023-01-01T13:07:11;18.26;46.36
68378;DHT22;55322;48.146;11.516;2023-01-01T13:09:41;18.24;45.28
68378;DHT22;55322;48.146;11.516;2023-01-01T13:12:20;18.07;47.96
68378;DHT22;55322;48.146;11.516;2023-01-01T13:14:49;17.82;49.17
68378;DHT22;55322;48.146;11.516;2023-01-01T13:17:22;17.76;49.10
68378;DHT22;55322;48.146;11.516;2023-01-01T13:19:54;17.63;47.21
68378;DHT22;55322;48.146;11.516;2023-01-01T13:38:58;17.59;49.71
68378;DHT22;55322;48.146;11.516;2023-01-01T13:43:50;17.35;49.18
68378;DHT22;55322;48.146;11.516;2023-01-01T13:46:18;17.28;48.17
68378;DHT22;55322;48.146;11.516;2023-01-01T13:52:05;17.12;48.13
68378;DHT22;55322;48.146;11.516;2023-01-01T14:00:21;17.05;48.20
68378;DHT22;55322;48.146;11.516;2023-01-01T14:02:50;17.03;50.23
68378;DHT22;55322;48.146;11.516;2023-01-01T14:05:40;16.85;51.17
68378;DHT22;55322;48.146;11.516;2023-01-01T14:10:57;16.41;52.94
68378;DHT22;55322;48.146;11.516;2023-01-01T14:13:25;16.60;48.25
68378;DHT22;55322;48.146;11.516;2023-01-01T14:15:56;16.70;48.68
68378;DHT22;55322;48.146;11.516;2023-01-01T14:20:56;16.75;49.81
68378;DHT22;55322;48.146;11.516;2023-01-01T14:23:36;16.46;51.62
68378;DHT22;55322;48.146;11.516;2023-01-01T14:26:07;16.37;49.49
68378;DHT22;55322;48.146;11.516;2023-01-01T14:28:34;16.34;50.11
68378;DHT22;55322;48.146;11.516;2023-01-01T14:31:03;16.17;50.44
68378;DHT22;55322;48.146;11.516;2023-01-01T14:33:31;16.43;49.10
68378;DHT22;55322;48.146;11.516;2023-01-01T14:35:59;16.13;50.54
68378;DHT22;55322;48.146;11.516;2023-01-01T14:38:30;16.02;50.58
68378;DHT22;55322;48.146;11.516;2023-01-01T14:41:16;16.21;49.86
68378;DHT22;55322;48.146;11.516;2023-01-01T14:43:44;15.88;52.44
68378;DHT22;55322;48.146;11.516;2023-01-01T14:46:16;15.56;52.94
68378;DHT22;55322;48.146;11.516;2023-01-01T14:48:45;15.30;56.43
68378;DHT22;55322;48.146;11.516;2023-01-01T14:51:18;15.10;54.65
68378;DHT22;55322;48.146;11.516;2023-01-01T14:53:49;14.84;54.77
68378;DHT22;55322;48.146;11.516;2023-01-01T14:56:30;14.74;57.48
68378;DHT22;55322;48.146;11.516;2023-01-01T14:59:11;14.97;55.28
68378;DHT22;55322;48.146;11.516;2023-01-01T15:01:37;14.61;56.65
68378;DHT22;55322;48.146;11.516;2023-01-01T15:04:19;14.15;60.71
68378;DHT22;55322;48.146;11.516;2023-01-01T15:06:44;14.08;58.28
68378;DHT22;55322;48.146;11.516;2023-01-01T15:09:15;14.01;58.29
68378;DHT22;55322;48.146;11.516;2023-01-01T15:11:41;13.89;59.83
68378;DHT22;55322;48.146;11.516;2023-01-01T15:14:27;13.74;60.31
68378;DHT22;55322;48.146;11.516;2023-01-01T15:17:04;14.06;58.39
68378;DHT22;55322;48.146;11.516;2023-01-01T15:19:30;14.57;56.27
68378;DHT22;55322;48.146;11.516;2023-01-01T15:21:56;14.90;55.25
68378;DHT22;55322;48.146;11.516;2023-01-01T15:24:22;14.83;56.04
68378;DHT22;55322;48.146;11.516;2023-01-01T15:26:52;14.94;55.45
68378;DHT22;55322;48.146;11.516;2023-01-01T15:29:31;15.10;55.02
68378;DHT22;55322;48.146;11.516;2023-01-01T15:32:01;15.11;54.83
68378;DHT22;55322;48.146;11.516;2023-01-01T15:36:54;15.14;54.68
68378;DHT22;55322;48.146;11.516;2023-01-01T15:39:20;15.08;55.10
68378;DHT22;55322;48.146;11.516;2023-01-01T15:41:51;15.03;55.12
68378;DHT22;55322;48.146;11.516;2023-01-01T15:44:18;14.90;55.51
68378;DHT22;55322;48.146;11.516;2023-01-01T15:46:49;14.57;57.70
68378;DHT22;55322;48.146;11.516;2023-01-01T15:49:28;14.25;58.99
68378;DHT22;55322;48.146;11.516;2023-01-01T15:52:03;14.02;58.15
68378;DHT22;55322;48.146;11.516;2023-01-01T15:54:32;13.50;61.22
68378;DHT22;55322;48.146;11.516;2023-01-01T15:57:00;13.28;61.46
68378;DHT22;55322;48.146;11.516;2023-01-01T15:59:32;13.25;61.22
68378;DHT22;55322;48.146;11.516;2023-01-01T16:02:06;13.25;60.91
68378;DHT22;55322;48.146;11.516;2023-01-01T16:04:35;13.02;63.53
68378;DHT22;55322;48.146;11.516;2023-01-01T16:07:00;12.79;62.97
68378;DHT22;55322;48.146;11.516;2023-01-01T16:09:26;12.53;63.63
68378;DHT22;55322;48.146;11.516;2023-01-01T16:11:53;12.70;62.72
68378;DHT22;55322;48.146;11.516;2023-01-01T16:14:18;13.10;61.58
68378;DHT22;55322;48.146;11.516;2023-01-01T16:16:48;13.07;61.56
68378;DHT22;55322;48.146;11.516;2023-01-01T16:19:17;13.14;61.37
68378;DHT22;55322;48.146;11.516;2023-01-01T16:21:43;13.23;60.86
68378;DHT22;55322;48.146;11.516;2023-01-01T16:24:13;13.30;60.61
68378;DHT22;55322;48.146;11.516;2023-01-01T16:26:40;13.43;60.11
68378;DHT22;55322;48.146;11.516;2023-01-01T16:29:06;13.45;59.90
68378;DHT22;55322;48.146;11.516;2023-01-01T16:31:31;13.50;59.48
68378;DHT22;55322;48.146;11.516;2023-01-01T16:33:58;13.40;59.70
68378;DHT22;55322;48.146;11.516;2023-01-01T16:36:24;13.20;61.07
68378;DHT22;55322;48.146;11.516;2023-01-01T16:38:54;13.14;60.58
68378;DHT22;55322;48.146;11.516;2023-01-01T16:41:20;13.11;60.26
68378;DHT22;55322;48.146;11.516;2023-01-01T16:43:45;12.86;61.51
68378;DHT22;55322;48.146;11.516;2023-01-01T16:46:11;12.69;61.65
68378;DHT22;55322;48.146;11.516;2023-01-01T16:48:37;12.49;62.70
68378;DHT22;55322;48.146;11.516;2023-01-01T16:51:03;12.33;62.71
68378;DHT22;55322;48.146;11.516;2023-01-01T16:53:29;12.12;64.70
68378;DHT22;55322;48.146;11.516;2023-01-01T16:55:54;11.92;65.03
68378;DHT22;55322;48.146;11.516;2023-01-01T16:58:20;11.99;63.52
68378;DHT22;55322;48.146;11.516;2023-01-01T17:00:46;12.32;62.20
68378;DHT22;55322;48.146;11.516;2023-01-01T17:03:12;12.29;62.44
68378;DHT22;55322;48.146;11.516;2023-01-01T17:05:38;12.45;61.29
68378;DHT22;55322;48.146;11.516;2023-01-01T17:08:04;12.53;60.84
68378;DHT22;55322;48.146;11.516;2023-01-01T17:10:29;12.63;60.41
68378;DHT22;55322;48.146;11.516;2023-01-01T17:12:55;12.62;60.59
68378;DHT22;55322;48.146;11.516;2023-01-01T17:15:26;12.59;60.65
68378;DHT22;55322;48.146;11.516;2023-01-01T17:17:51;12.53;60.50
68378;DHT22;55322;48.146;11.516;2023-01-01T17:20:17;12.46;60.94
68378;DHT22;55322;48.146;11.516;2023-01-01T17:22:42;12.55;60.22
68378;DHT22;55322;48.146;11.516;2023-01-01T17:25:08;12.55;60.32